Time;durP1;ratioP1;P1;durP2;ratioP2;P2;SDS_P1;SDS_P2;PMS_P1;PMS_P2;Temp;Humidity;BMP_temperature;BMP_pressure;BME280_temperature;BME280_humidity;BME280_pressure;Samples;Min_cycle;Max_cycle;Signal;HPM_P1;HPM_P2
2021/04/23 00:02:03;;;;;;;0.00;0.00;;;16.70;54.20;;;;;;4241875;27;20062;-44
2021/04/23 00:04:25;;;;;;;0.00;0.00;;;16.80;54.10;;;;;;4227545;27;20140;-43
2021/04/23 00:06:49;;;;;;;0.22;0.20;;;17.00;53.60;;;;;;4207607;28;20048;-44
2021/04/23 00:09:12;;;;;;;0.00;0.00;;;17.20;53.20;;;;;;4207829;28;20383;-43
2021/04/23 00:11:37;;;;;;;0.00;0.00;;;17.20;52.90;;;;;;4224281;28;20040;-44
2021/04/23 00:13:57;;;;;;;0.10;0.10;;;17.20;53.00;;;;;;4222015;28;20052;-45
2021/04/23 00:16:19;;;;;;;0.00;0.00;;;17.20;53.00;;;;;;4224208;28;20406;-44
2021/04/23 00:18:40;;;;;;;0.00;0.00;;;17.30;52.90;;;;;;4224133;28;20059;-48
2021/04/23 00:21:02;;;;;;;1.95;0.73;;;17.30;52.70;;;;;;4224178;28;20052;-49
2021/04/23 00:23:24;;;;;;;0.08;0.08;;;17.30;52.60;;;;;;4224180;28;20066;-43
2021/04/23 00:25:46;;;;;;;0.00;0.00;;;17.30;52.80;;;;;;4207909;28;20044;-46
2021/04/23 00:28:08;;;;;;;;;;;17.20;52.90;;;;;;4194968;28;20056;-43
2021/04/23 00:30:33;;;;;;;0.10;0.10;;;17.30;52.70;;;;;;4216470;28;20399;-44
2021/04/23 00:32:54;;;;;;;1.45;1.30;;;17.40;52.50;;;;;;4211016;28;20563;-44
2021/04/23 00:35:15;;;;;;;5.63;0.80;;;17.40;52.50;;;;;;4210839;28;20052;-43
2021/04/23 00:37:37;;;;;;;0.05;0.05;;;17.40;52.50;;;;;;4210591;28;20052;-43
2021/04/23 00:39:58;;;;;;;0.90;0.90;;;17.30;52.60;;;;;;4210906;28;20055;-45
2021/04/23 00:42:18;;;;;;;0.00;0.00;;;17.30;52.70;;;;;;4210717;28;20048;-44
2021/04/23 00:44:40;;;;;;;0.98;0.77;;;17.30;52.60;;;;;;4214413;28;20113;-43
2021/04/23 00:47:01;;;;;;;3.10;1.73;;;17.40;52.50;;;;;;4227298;28;20497;-44
2021/04/23 00:49:22;;;;;;;1.63;0.90;;;17.40;52.50;;;;;;4238230;27;20047;-43
2021/04/23 00:51:48;;;;;;;0.20;0.20;;;17.30;52.60;;;;;;4228779;27;20062;-43
2021/04/23 00:54:12;;;;;;;0.00;0.00;;;17.30;53.50;;;;;;4243908;27;20481;-43
2021/04/23 00:56:35;;;;;;;0.10;0.10;;;17.30;52.70;;;;;;4243789;27;20052;-42
2021/04/23 00:58:57;;;;;;;0.00;0.00;;;17.30;52.70;;;;;;4223084;27;20517;-44
2021/04/23 01:01:23;;;;;;;0.30;0.30;;;17.30;52.70;;;;;;4210638;28;20059;-43
2021/04/23 01:03:44;;;;;;;0.22;0.22;;;17.10;52.90;;;;;;4193822;28;20402;-45
2021/04/23 01:06:07;;;;;;;0.00;0.00;;;17.10;53.20;;;;;;4192531;28;20075;-44
2021/04/23 01:08:30;;;;;;;0.00;0.00;;;16.90;54.10;;;;;;4194066;28;20486;-43
2021/04/23 01:10:54;;;;;;;0.00;0.00;;;16.80;53.70;;;;;;4211567;28;20058;-43
2021/04/23 01:13:14;;;;;;;0.25;0.25;;;16.80;53.80;;;;;;4227011;27;20052;-44
2021/04/23 01:15:35;;;;;;;0.00;0.00;;;16.90;53.60;;;;;;4243880;27;20553;-43
2021/04/23 01:17:57;;;;;;;0.00;0.00;;;17.10;53.20;;;;;;4240383;27;20054;-43
2021/04/23 01:20:20;;;;;;;0.00;0.00;;;17.40;52.60;;;;;;4210072;28;20051;-44
2021/04/23 01:22:42;;;;;;;0.00;0.00;;;17.60;51.90;;;;;;4210364;28;20058;-43
2021/04/23 01:25:03;;;;;;;0.00;0.00;;;17.70;51.70;;;;;;4210430;28;20067;-43
2021/04/23 01:27:24;;;;;;;0.00;0.00;;;17.70;51.60;;;;;;4192517;28;20484;-44
2021/04/23 01:29:46;;;;;;;0.00;0.00;;;17.70;51.60;;;;;;4210240;28;20452;-43
2021/04/23 01:32:07;;;;;;;0.00;0.00;;;17.60;51.90;;;;;;4223709;28;20055;-42
2021/04/23 01:34:30;;;;;;;0.00;0.00;;;17.40;52.10;;;;;;4226246;28;20047;-42
2021/04/23 01:36:53;;;;;;;0.28;0.28;;;17.30;52.30;;;;;;4210212;28;20059;-44
2021/04/23 01:39:16;;;;;;;0.10;0.10;;;17.20;52.70;;;;;;4208671;28;20488;-44
2021/04/23 01:41:38;;;;;;;0.20;0.20;;;17.10;53.00;;;;;;4206374;28;20044;-44
2021/04/23 01:43:59;;;;;;;0.00;0.00;;;17.00;53.20;;;;;;4215426;28;20486;-44
2021/04/23 01:46:20;;;;;;;0.00;0.00;;;17.00;53.30;;;;;;4226548;28;20054;-44
2021/04/23 01:48:41;;;;;;;;;;;17.00;53.10;;;;;;4216540;28;20403;-45
2021/04/23 01:51:04;;;;;;;;;;;17.00;53.20;;;;;;4196791;28;19962;-43
2021/04/23 01:53:24;;;;;;;;;;;16.90;53.30;;;;;;4242607;27;19923;-45
2021/04/23 01:55:46;;;;;;;14.75;0.40;;;17.00;53.30;;;;;;4226518;28;19934;-44
2021/04/23 01:58:08;;;;;;;0.05;0.05;;;17.10;53.00;;;;;;4223674;28;20082;-44
2021/04/23 02:00:32;;;;;;;0.00;0.00;;;17.20;52.60;;;;;;4209398;28;20052;-48
2021/04/23 02:02:53;;;;;;;0.38;0.38;;;17.30;52.40;;;;;;4209450;28;20481;-46
2021/04/23 02:05:14;;;;;;;;;;;17.30;52.30;;;;;;4209791;28;20048;-43
2021/04/23 02:07:36;;;;;;;0.00;0.00;;;17.20;52.50;;;;;;4209428;28;20111;-43
2021/04/23 02:09:57;;;;;;;0.00;0.00;;;17.30;52.30;;;;;;4197304;27;20052;-44
2021/04/23 02:12:19;;;;;;;0.00;0.00;;;17.60;51.80;;;;;;4209758;28;20039;-43
2021/04/23 02:14:46;;;;;;;0.03;0.03;;;17.70;51.40;;;;;;4209010;28;20509;-45
2021/04/23 02:17:08;;;;;;;0.00;0.00;;;17.70;51.20;;;;;;4225744;28;20150;-43
2021/04/23 02:19:29;;;;;;;0.00;0.00;;;17.70;51.40;;;;;;4225306;28;20039;-43
2021/04/23 02:21:50;;;;;;;0.10;0.10;;;17.60;51.40;;;;;;4225824;28;20413;-43
2021/04/23 02:24:12;;;;;;;0.00;0.00;;;17.60;51.60;;;;;;4225901;28;20058;-43
2021/04/23 02:26:34;;;;;;;0.00;0.00;;;17.50;51.80;;;;;;4225984;28;20047;-44
2021/04/23 02:28:56;;;;;;;0.03;0.03;;;17.40;52.00;;;;;;4198669;28;20059;-45
2021/04/23 02:31:20;;;;;;;0.00;0.00;;;17.20;52.20;;;;;;4225983;28;20052;-44
2021/04/23 02:33:43;;;;;;;0.08;0.08;;;17.10;52.60;;;;;;4225669;28;20050;-43
2021/04/23 02:36:05;;;;;;;0.20;0.20;;;17.00;52.90;;;;;;4225325;28;20047;-44
2021/04/23 02:38:26;;;;;;;1.08;0.98;;;16.90;53.20;;;;;;4216475;28;20048;-46
2021/04/23 02:40:48;;;;;;;;;;;16.90;53.20;;;;;;4192999;28;20048;-49
2021/04/23 02:43:13;;;;;;;0.00;0.00;;;17.00;53.00;;;;;;4206736;28;19959;-43
2021/04/23 02:45:38;;;;;;;0.00;0.00;;;17.00;52.80;;;;;;4208997;28;20068;-43
2021/04/23 02:48:00;;;;;;;0.00;0.00;;;17.00;52.90;;;;;;4219924;28;20040;-43
2021/04/23 02:50:25;;;;;;;0.00;0.00;;;17.10;52.80;;;;;;4221119;28;20233;-43
2021/04/23 02:52:46;;;;;;;0.00;0.00;;;17.20;52.50;;;;;;4225186;28;20051;-44
2021/04/23 02:55:09;;;;;;;0.00;0.00;;;17.20;52.40;;;;;;4225497;28;20096;-43
2021/04/23 02:57:31;;;;;;;17.63;0.88;;;17.20;52.40;;;;;;4225073;28;20150;-44
2021/04/23 02:59:52;;;;;;;0.00;0.00;;;17.40;52.00;;;;;;4208196;28;20052;-43
2021/04/23 03:02:13;;;;;;;0.00;0.00;;;17.50;51.70;;;;;;4174507;28;20069;-43
2021/04/23 03:04:35;;;;;;;0.17;0.17;;;17.50;51.60;;;;;;4174063;28;20077;-43
2021/04/23 03:06:56;;;;;;;;;;;17.50;51.70;;;;;;4173501;28;20053;-43
2021/04/23 03:09:17;;;;;;;0.00;0.00;;;17.50;51.60;;;;;;4173850;28;19953;-43
2021/04/23 03:11:40;;;;;;;0.00;0.00;;;17.50;51.60;;;;;;4160381;28;20057;-43
2021/04/23 03:14:02;;;;;;;0.00;0.00;;;17.50;51.70;;;;;;4184722;28;20044;-43
2021/04/23 03:16:24;;;;;;;0.20;0.20;;;17.40;51.80;;;;;;4191914;28;20098;-45
2021/04/23 03:18:47;;;;;;;0.08;0.08;;;17.30;52.00;;;;;;4191433;28;20052;-44
2021/04/23 03:21:11;;;;;;;0.00;0.00;;;17.20;52.40;;;;;;4191791;28;20056;-43
2021/04/23 03:23:33;;;;;;;0.00;0.00;;;17.00;52.60;;;;;;4191158;28;20490;-43
2021/04/23 03:25:54;;;;;;;0.00;0.00;;;16.90;52.90;;;;;;4175096;28;20106;-44
2021/04/23 03:28:15;;;;;;;0.00;0.00;;;16.80;53.20;;;;;;4169274;28;20069;-44
2021/04/23 03:30:37;;;;;;;;;;;16.70;53.40;;;;;;4159251;28;20412;-46
2021/04/23 03:32:59;;;;;;;0.00;0.00;;;16.80;53.40;;;;;;4160073;28;19967;-44
2021/04/23 03:35:22;;;;;;;0.22;0.22;;;17.00;53.10;;;;;;4174948;28;20052;-43
2021/04/23 03:37:44;;;;;;;0.05;0.05;;;17.10;52.70;;;;;;4191464;28;20673;-45
2021/04/23 03:40:07;;;;;;;0.00;0.00;;;17.20;52.40;;;;;;4190140;28;20131;-48
2021/04/23 03:42:32;;;;;;;0.20;0.20;;;17.20;52.40;;;;;;4191016;28;20075;-46
2021/04/23 03:44:54;;;;;;;0.00;0.00;;;17.10;52.40;;;;;;4165637;28;20060;-44
2021/04/23 03:47:15;;;;;;;0.00;0.00;;;17.10;52.50;;;;;;4175621;28;20045;-46
2021/04/23 03:49:36;;;;;;;0.43;0.43;;;17.20;52.50;;;;;;4174923;28;20407;-43
2021/04/23 03:51:58;;;;;;;;;;;17.40;51.90;;;;;;4175315;28;20045;-44
2021/04/23 03:54:19;;;;;;;;;;;17.60;51.40;;;;;;4188823;28;19924;-44
2021/04/23 03:56:40;;;;;;;0.20;0.20;;;17.70;51.20;;;;;;4185469;28;19924;-43
2021/04/23 03:59:01;;;;;;;0.55;0.55;;;17.60;51.20;;;;;;4203348;28;20048;-43
2021/04/23 04:01:25;;;;;;;0.00;0.00;;;17.60;51.50;;;;;;4228185;27;20417;-43
2021/04/23 04:03:47;;;;;;;0.00;0.00;;;17.40;51.60;;;;;;4223499;27;20048;-44
2021/04/23 04:06:09;;;;;;;0.00;0.00;;;17.30;52.00;;;;;;4208214;28;20089;-46
2021/04/23 04:08:30;;;;;;;0.15;0.15;;;17.20;52.40;;;;;;4224197;28;20050;-43
2021/04/23 04:10:52;;;;;;;0.00;0.00;;;17.10;52.60;;;;;;4224411;28;20063;-44
2021/04/23 04:13:13;;;;;;;0.00;0.00;;;17.20;52.40;;;;;;4218948;28;20059;-45
2021/04/23 04:15:35;;;;;;;0.00;0.00;;;17.40;52.10;;;;;;4207763;28;20052;-44
2021/04/23 04:17:57;;;;;;;0.00;0.00;;;17.40;51.90;;;;;;4206404;28;20055;-43
2021/04/23 04:20:20;;;;;;;0.00;0.00;;;17.40;51.90;;;;;;4207971;28;20047;-43
2021/04/23 04:22:41;;;;;;;0.00;0.00;;;17.30;52.00;;;;;;4207805;28;20128;-43
2021/04/23 04:25:03;;;;;;;;;;;17.30;52.20;;;;;;4194183;28;20050;-45
2021/04/23 04:27:24;;;;;;;0.00;0.00;;;17.20;52.40;;;;;;4207625;28;19927;-45
2021/04/23 04:29:46;;;;;;;0.00;0.00;;;17.10;52.70;;;;;;4207323;28;20097;-43
2021/04/23 04:32:08;;;;;;;0.00;0.00;;;17.00;52.90;;;;;;4207309;28;20054;-43
2021/04/23 04:34:29;;;;;;;0.00;0.00;;;17.00;52.90;;;;;;4206338;28;20048;-44
2021/04/23 04:36:50;;;;;;;0.65;0.60;;;17.10;52.80;;;;;;4208463;28;20494;-42
2021/04/23 04:39:12;;;;;;;0.00;0.00;;;17.30;52.50;;;;;;4224020;28;20052;-43
2021/04/23 04:41:34;;;;;;;0.00;0.00;;;17.60;51.70;;;;;;4224008;28;20118;-44
2021/04/23 04:43:55;;;;;;;0.00;0.00;;;17.80;51.00;;;;;;4224490;28;20051;-43
2021/04/23 04:46:16;;;;;;;0.00;0.00;;;17.90;50.80;;;;;;4232346;28;21505;-43
2021/04/23 04:48:38;;;;;;;1.48;1.15;;;17.90;50.80;;;;;;4223898;28;20058;-43
2021/04/23 04:51:00;;;;;;;0.00;0.00;;;17.80;51.00;;;;;;4223941;28;20047;-43
2021/04/23 04:53:22;;;;;;;0.00;0.00;;;17.70;51.20;;;;;;4218391;28;20044;-43
2021/04/23 04:55:46;;;;;;;0.00;0.00;;;17.60;51.50;;;;;;4207638;28;20094;-46
2021/04/23 04:58:11;;;;;;;0.00;0.00;;;17.40;51.70;;;;;;4207653;28;20072;-43
2021/04/23 05:00:34;;;;;;;0.70;0.70;;;17.30;52.10;;;;;;4206963;28;20052;-51
2021/04/23 05:02:56;;;;;;;0.00;0.00;;;17.20;52.40;;;;;;4210720;28;20052;-48
2021/04/23 05:05:17;;;;;;;0.00;0.00;;;17.20;52.60;;;;;;4240884;28;20054;-47
2021/04/23 05:07:38;;;;;;;0.05;0.05;;;17.20;52.50;;;;;;4203828;28;20555;-43
2021/04/23 05:10:00;;;;;;;;;;;17.20;52.60;;;;;;4197088;28;20418;-42
2021/04/23 05:12:21;;;;;;;0.43;0.43;;;17.10;52.80;;;;;;4222466;28;19920;-43
2021/04/23 05:14:43;;;;;;;0.00;0.00;;;17.10;53.00;;;;;;4195999;28;20048;-44
2021/04/23 05:17:04;;;;;;;0.00;0.00;;;17.00;53.10;;;;;;4210224;28;20044;-43
2021/04/23 05:19:25;;;;;;;0.63;0.45;;;17.00;53.20;;;;;;4210580;28;20498;-47
2021/04/23 05:21:46;;;;;;;0.00;0.00;;;16.90;53.30;;;;;;4210301;28;20589;-46
2021/04/23 05:24:08;;;;;;;0.00;0.00;;;16.80;53.50;;;;;;4196142;28;20127;-45
2021/04/23 05:26:29;;;;;;;;;;;16.80;53.70;;;;;;4231003;27;20047;-43
2021/04/23 05:28:49;;;;;;;0.00;0.00;;;16.70;54.00;;;;;;4242344;27;20010;-43
2021/04/23 05:31:12;;;;;;;0.00;0.00;;;16.70;54.00;;;;;;4244124;27;20051;-46
2021/04/23 05:33:33;;;;;;;0.03;0.03;;;17.00;53.50;;;;;;4222211;27;20460;-43
2021/04/23 05:35:54;;;;;;;0.00;0.00;;;17.10;53.00;;;;;;4210078;28;20055;-46
2021/04/23 05:38:15;;;;;;;0.20;0.20;;;17.20;52.90;;;;;;4210149;28;20481;-44
2021/04/23 05:40:38;;;;;;;;;;;17.10;52.90;;;;;;4193609;28;20041;-47
2021/04/23 05:42:59;;;;;;;0.00;0.00;;;17.10;52.90;;;;;;4214065;28;20389;-43
2021/04/23 05:45:21;;;;;;;;;;;17.10;53.00;;;;;;4227441;27;20128;-43
2021/04/23 05:47:42;;;;;;;0.00;0.00;;;17.10;53.80;;;;;;4225651;28;19927;-43
2021/04/23 05:50:05;;;;;;;0.10;0.10;;;17.00;53.20;;;;;;4226792;27;20064;-44
2021/04/23 05:52:26;;;;;;;0.00;0.00;;;17.00;53.30;;;;;;4235351;27;20040;-43
2021/04/23 05:54:47;;;;;;;0.03;0.03;;;16.90;53.50;;;;;;4193028;28;20043;-46
2021/04/23 05:57:09;;;;;;;0.00;0.00;;;17.00;53.50;;;;;;4190786;28;20106;-43
2021/04/23 05:59:30;;;;;;;0.00;0.00;;;17.10;53.20;;;;;;4209903;28;20040;-46
2021/04/23 06:01:51;;;;;;;;;;;17.10;53.10;;;;;;4210068;28;20056;-50
2021/04/23 06:04:13;;;;;;;0.00;0.00;;;17.20;53.00;;;;;;4192892;28;20563;-50
2021/04/23 06:06:34;;;;;;;0.00;0.00;;;17.20;52.90;;;;;;4209577;28;20044;-51
2021/04/23 06:08:55;;;;;;;;;;;17.20;52.80;;;;;;4209901;28;20460;-53
2021/04/23 06:11:17;;;;;;;0.00;0.00;;;17.30;52.80;;;;;;4211157;28;19920;-51
2021/04/23 06:13:38;;;;;;;0.00;0.00;;;17.40;52.70;;;;;;4216209;28;20493;-47
2021/04/23 06:15:59;;;;;;;2.90;1.65;;;17.40;52.60;;;;;;4225753;28;20055;-47
2021/04/23 06:18:20;;;;;;;0.00;0.00;;;17.30;53.20;;;;;;4226088;28;20059;-44
2021/04/23 06:20:43;;;;;;;3.30;2.80;;;17.20;53.60;;;;;;4226063;28;20502;-50
2021/04/23 06:23:09;;;;;;;0.00;0.00;;;17.10;53.90;;;;;;4216469;28;20060;-48
2021/04/23 06:25:30;;;;;;;0.17;0.17;;;17.10;54.00;;;;;;4209501;28;20131;-49
2021/04/23 06:27:52;;;;;;;0.00;0.00;;;17.30;53.70;;;;;;4215934;28;20058;-44
2021/04/23 06:30:16;;;;;;;0.00;0.00;;;17.40;53.30;;;;;;4226024;28;20455;-43
2021/04/23 06:32:42;;;;;;;0.17;0.17;;;17.40;53.20;;;;;;4216645;28;20047;-50
2021/04/23 06:35:03;;;;;;;0.05;0.05;;;17.60;53.20;;;;;;4219107;28;20051;-46
2021/04/23 06:37:25;;;;;;;0.00;0.00;;;17.70;53.10;;;;;;4225675;28;20160;-43
2021/04/23 06:39:46;;;;;;;0.00;0.00;;;17.80;52.90;;;;;;4224885;28;20061;-45
2021/04/23 06:42:08;;;;;;;0.00;0.00;;;17.80;52.80;;;;;;4223821;27;20554;-44
2021/04/23 06:44:29;;;;;;;0.00;0.00;;;17.80;53.50;;;;;;4213056;28;20044;-45
2021/04/23 06:46:50;;;;;;;0.38;0.38;;;17.70;52.80;;;;;;4225697;28;20509;-45
2021/04/23 06:49:12;;;;;;;0.00;0.00;;;17.60;53.10;;;;;;4225667;28;20083;-45
2021/04/23 06:51:36;;;;;;;0.00;0.00;;;17.50;53.40;;;;;;4224596;28;20083;-44
2021/04/23 06:53:58;;;;;;;0.00;0.00;;;17.50;53.60;;;;;;4225425;28;20043;-44
2021/04/23 06:56:20;;;;;;;0.00;0.00;;;17.30;54.00;;;;;;4225250;28;20044;-46
2021/04/23 06:58:40;;;;;;;0.00;0.00;;;17.20;54.10;;;;;;4215494;28;20048;-46
2021/04/23 07:01:02;;;;;;;0.00;0.00;;;17.10;54.40;;;;;;4208310;28;20044;-46
2021/04/23 07:03:23;;;;;;;0.00;0.00;;;17.00;54.80;;;;;;4204775;28;20051;-43
2021/04/23 07:05:45;;;;;;;0.00;0.00;;;16.90;54.90;;;;;;4225423;28;20508;-43
2021/04/23 07:08:07;;;;;;;0.20;0.20;;;16.90;55.20;;;;;;4225892;28;20486;-44
2021/04/23 07:10:30;;;;;;;0.00;0.00;;;16.90;55.20;;;;;;4210744;27;20071;-45
2021/04/23 07:12:51;;;;;;;0.30;0.30;;;16.80;55.30;;;;;;4195507;28;20137;-45
2021/04/23 07:15:14;;;;;;;;;;;16.80;55.40;;;;;;4208954;28;20051;-46
2021/04/23 07:17:36;;;;;;;0.00;0.00;;;16.80;55.50;;;;;;4208514;28;20336;-43
2021/04/23 07:20:17;;;;;;;0.00;0.00;;;16.70;55.40;;;;;;4208705;28;20071;-43
2021/04/23 07:22:38;;;;;;;0.00;0.00;;;16.70;55.80;;;;;;4206566;28;20414;-44
2021/04/23 07:24:59;;;;;;;;;;;16.60;56.00;;;;;;4225280;28;20051;-46
2021/04/23 07:27:21;;;;;;;0.63;0.63;;;16.60;56.10;;;;;;4219004;28;19930;-47
2021/04/23 07:29:42;;;;;;;0.00;0.00;;;16.50;56.00;;;;;;4217546;28;20046;-45
2021/04/23 07:32:04;;;;;;;0.00;0.00;;;16.40;56.50;;;;;;4222625;28;20405;-45
2021/04/23 07:34:25;;;;;;;3.55;1.10;;;16.30;56.90;;;;;;4221741;28;20740;-45
2021/04/23 07:36:47;;;;;;;0.00;0.00;;;16.30;57.10;;;;;;4215466;27;20148;-45
2021/04/23 07:39:10;;;;;;;3.00;0.47;;;16.20;57.30;;;;;;4205101;28;20485;-44
2021/04/23 07:41:31;;;;;;;0.00;0.00;;;16.10;57.40;;;;;;4237144;27;20086;-42
2021/04/23 07:43:53;;;;;;;0.00;0.00;;;16.20;57.30;;;;;;4217175;28;20060;-43
2021/04/23 07:46:15;;;;;;;0.00;0.00;;;16.20;57.20;;;;;;4206122;28;20056;-45
2021/04/23 07:48:36;;;;;;;0.10;0.10;;;16.20;57.00;;;;;;4199012;28;20068;-44
2021/04/23 07:50:57;;;;;;;0.05;0.05;;;16.20;56.90;;;;;;4224260;28;20130;-44
2021/04/23 07:53:18;;;;;;;0.00;0.00;;;16.20;56.80;;;;;;4214113;28;20043;-44
2021/04/23 07:55:39;;;;;;;0.00;0.00;;;16.20;56.70;;;;;;4224343;28;20162;-45
2021/04/23 07:58:03;;;;;;;0.00;0.00;;;16.20;56.60;;;;;;4222553;28;20051;-43
2021/04/23 08:00:27;;;;;;;0.15;0.15;;;16.10;56.80;;;;;;4216659;28;20440;-43
2021/04/23 08:02:48;;;;;;;0.00;0.00;;;16.10;56.90;;;;;;4212802;28;20047;-43
2021/04/23 08:05:12;;;;;;;0.00;0.00;;;16.00;56.90;;;;;;4210279;28;20044;-44
2021/04/23 08:07:51;;;;;;;31.20;2.25;;;15.90;57.00;;;;;;4200077;28;20079;-44
2021/04/23 08:10:14;;;;;;;4.28;0.25;;;15.90;57.20;;;;;;4191052;28;20048;-44
2021/04/23 08:12:35;;;;;;;0.65;0.40;;;15.80;57.10;;;;;;4203801;28;20657;-43
2021/04/23 08:14:56;;;;;;;0.00;0.00;;;15.80;57.20;;;;;;4207636;28;20126;-43
2021/04/23 08:17:18;;;;;;;0.00;0.00;;;15.80;57.10;;;;;;4210610;28;20075;-43
2021/04/23 08:19:39;;;;;;;0.00;0.00;;;15.80;57.10;;;;;;4216319;28;20447;-44
2021/04/23 08:22:00;;;;;;;0.00;0.00;;;15.80;57.10;;;;;;4213886;28;20054;-43
2021/04/23 08:24:22;;;;;;;0.00;0.00;;;15.80;57.10;;;;;;4219670;28;20725;-43
2021/04/23 08:26:43;;;;;;;0.00;0.00;;;15.80;57.00;;;;;;4219388;28;20071;-45
2021/04/23 08:29:04;;;;;;;0.13;0.13;;;15.80;56.80;;;;;;4221134;28;20051;-43
2021/04/23 08:31:25;;;;;;;0.10;0.10;;;15.80;56.60;;;;;;4225108;28;20481;-45
2021/04/23 08:33:47;;;;;;;0.22;0.22;;;15.80;56.60;;;;;;4239100;28;20498;-43
2021/04/23 08:36:09;;;;;;;0.00;0.00;;;15.80;56.60;;;;;;4223975;28;20059;-43
2021/04/23 08:38:30;;;;;;;;;;;15.80;56.50;;;;;;4229335;28;22013;-47
2021/04/23 08:40:51;;;;;;;0.40;0.15;;;15.70;56.20;;;;;;4194247;28;20379;-49
2021/04/23 08:43:11;;;;;;;0.10;0.10;;;15.70;56.20;;;;;;4205888;28;20051;-44
2021/04/23 08:45:32;;;;;;;0.00;0.00;;;15.70;56.40;;;;;;4223816;28;20048;-43
2021/04/23 08:47:53;;;;;;;0.00;0.00;;;15.70;56.30;;;;;;4223931;27;20051;-44
2021/04/23 08:50:18;;;;;;;0.00;0.00;;;15.70;56.00;;;;;;4202485;28;20082;-46
2021/04/23 08:52:41;;;;;;;0.00;0.00;;;15.80;56.00;;;;;;4210105;28;20406;-44
2021/04/23 08:55:04;;;;;;;0.00;0.00;;;15.80;55.90;;;;;;4211852;28;20093;-45
2021/04/23 08:57:26;;;;;;;0.30;0.30;;;15.80;55.80;;;;;;4225247;28;20048;-46
2021/04/23 08:59:47;;;;;;;0.00;0.00;;;15.70;55.80;;;;;;4220910;28;20047;-45
2021/04/23 09:02:08;;;;;;;0.00;0.00;;;15.70;55.70;;;;;;4224364;28;20056;-43
2021/04/23 09:04:29;;;;;;;0.00;0.00;;;15.70;55.80;;;;;;4216548;28;20473;-42
2021/04/23 09:07:00;;;;;;;;;;;15.70;55.90;;;;;;4224587;28;20050;-44
2021/04/23 09:09:22;;;;;;;0.00;0.00;;;15.70;56.00;;;;;;4216766;28;19997;-43
2021/04/23 09:11:45;;;;;;;0.00;0.00;;;15.70;56.00;;;;;;4209969;28;20048;-44
2021/04/23 09:14:08;;;;;;;0.00;0.00;;;15.70;55.90;;;;;;4210610;28;20056;-43
2021/04/23 09:16:48;;;;;;;0.85;0.85;;;15.70;55.80;;;;;;4207020;28;20156;-46
2021/04/23 09:19:16;;;;;;;0.00;0.00;;;15.70;55.80;;;;;;4229397;27;20051;-43
2021/04/23 09:21:46;;;;;;;0.00;0.00;;;15.60;55.70;;;;;;4210532;28;20945;-43
2021/04/23 09:24:09;;;;;;;0.47;0.47;;;15.60;55.50;;;;;;4210325;28;20048;-43
2021/04/23 09:26:32;;;;;;;0.00;0.00;;;15.70;55.50;;;;;;4217534;27;20320;-44
2021/04/23 09:28:53;;;;;;;0.10;0.10;;;15.70;55.30;;;;;;4215056;27;20056;-45
2021/04/23 09:31:25;;;;;;;0.10;0.10;;;15.70;55.10;;;;;;4226669;28;20043;-43
2021/04/23 09:33:50;;;;;;;0.00;0.00;;;15.80;54.90;;;;;;4225935;28;20047;-48
2021/04/23 09:36:24;;;;;;;4.22;0.90;;;15.80;54.60;;;;;;4226134;28;20390;-44
2021/04/23 09:38:45;;;;;;;0.25;0.25;;;15.80;55.20;;;;;;4212400;28;20513;-49
2021/04/23 09:41:19;;;;;;;;;;;15.70;54.30;;;;;;4210807;28;20052;-49
2021/04/23 09:43:40;;;;;;;0.00;0.00;;;15.70;54.40;;;;;;4210531;28;19958;-43
2021/04/23 09:46:01;;;;;;;0.00;0.00;;;15.70;54.50;;;;;;4226604;28;20056;-43
2021/04/23 09:48:24;;;;;;;0.20;0.20;;;15.70;54.70;;;;;;4212681;28;20104;-46
2021/04/23 09:50:45;;;;;;;0.00;0.00;;;15.70;54.60;;;;;;4226382;28;20051;-44
2021/04/23 09:53:07;;;;;;;0.65;0.65;;;15.70;54.70;;;;;;4220612;27;20063;-43
2021/04/23 09:55:31;;;;;;;0.03;0.03;;;15.80;54.80;;;;;;4208074;28;20055;-45
2021/04/23 09:57:54;;;;;;;0.10;0.10;;;15.80;54.60;;;;;;4204655;28;20078;-45
2021/04/23 10:00:17;;;;;;;0.00;0.00;;;15.80;54.50;;;;;;4226381;28;20501;-44
2021/04/23 10:02:38;;;;;;;0.03;0.03;;;15.80;54.40;;;;;;4221123;28;20148;-43
2021/04/23 10:04:59;;;;;;;;;;;15.80;54.40;;;;;;4207095;28;20048;-43
2021/04/23 10:07:22;;;;;;;0.00;0.00;;;15.90;54.30;;;;;;4205589;28;20738;-44
2021/04/23 10:09:53;;;;;;;0.00;0.00;;;15.90;54.20;;;;;;4224614;28;20051;-43
2021/04/23 10:12:42;;;;;;;0.10;0.10;;;15.90;54.20;;;;;;4225927;28;20553;-44
2021/04/23 10:15:08;;;;;;;0.00;0.00;;;15.80;54.10;;;;;;4209056;28;20418;-43
2021/04/23 10:17:29;;;;;;;2.75;2.10;;;15.90;54.30;;;;;;4208963;28;20059;-45
2021/04/23 10:19:50;;;;;;;0.00;0.00;;;15.90;54.00;;;;;;4209312;28;20055;-46
2021/04/23 10:22:12;;;;;;;1.10;1.10;;;15.90;54.40;;;;;;4210452;28;20047;-47
2021/04/23 10:24:33;;;;;;;1.83;1.48;;;16.00;53.40;;;;;;4219008;28;20096;-47
2021/04/23 10:26:54;;;;;;;0.05;0.05;;;15.90;53.40;;;;;;4224537;28;20126;-45
2021/04/23 10:29:17;;;;;;;0.10;0.10;;;16.00;53.40;;;;;;4214444;28;20047;-44
2021/04/23 10:31:39;;;;;;;0.73;0.45;;;16.00;53.30;;;;;;4216243;28;20101;-44
2021/04/23 10:34:01;;;;;;;0.00;0.00;;;16.00;53.60;;;;;;4223605;28;20130;-44
2021/04/23 10:36:22;;;;;;;0.17;0.17;;;16.00;53.60;;;;;;4223681;28;20071;-44
2021/04/23 10:38:44;;;;;;;0.10;0.10;;;16.00;53.70;;;;;;4225551;28;20047;-43
2021/04/23 10:41:07;;;;;;;0.00;0.00;;;16.00;53.60;;;;;;4208536;28;20051;-43
2021/04/23 10:43:29;;;;;;;0.10;0.10;;;16.00;53.60;;;;;;4219665;28;20054;-43
2021/04/23 10:46:04;;;;;;;0.05;0.05;;;16.10;53.50;;;;;;4215314;28;20055;-45
2021/04/23 10:48:28;;;;;;;0.80;0.80;;;16.00;53.40;;;;;;4237621;27;20594;-43
2021/04/23 10:50:51;;;;;;;0.00;0.00;;;16.00;53.20;;;;;;4239453;27;20051;-44
2021/04/23 10:53:13;;;;;;;2.15;0.55;;;16.00;53.30;;;;;;4242243;27;20541;-44
2021/04/23 10:55:47;;;;;;;0.00;0.00;;;16.00;53.20;;;;;;4209599;27;20135;-43
2021/04/23 10:58:10;;;;;;;0.10;0.10;;;16.00;53.00;;;;;;4208169;28;20040;-44
2021/04/23 11:00:33;;;;;;;1.20;1.10;;;16.00;53.00;;;;;;4219090;28;20063;-43
2021/04/23 11:03:22;;;;;;;0.00;0.00;;;16.00;52.90;;;;;;4220565;28;20538;-43
2021/04/23 11:05:45;;;;;;;0.00;0.00;;;16.00;52.80;;;;;;4224913;28;20047;-43
2021/04/23 11:08:09;;;;;;;0.00;0.00;;;15.90;52.80;;;;;;4224765;28;20043;-43
2021/04/23 11:10:50;;;;;;;0.00;0.00;;;15.90;52.80;;;;;;4223945;28;20059;-44
2021/04/23 11:13:22;;;;;;;0.45;0.45;;;15.90;52.80;;;;;;4190930;28;20139;-49
2021/04/23 11:15:43;;;;;;;0.00;0.00;;;16.00;52.80;;;;;;4208296;28;20121;-43
2021/04/23 11:18:26;;;;;;;0.00;0.00;;;16.00;52.70;;;;;;4191507;28;20055;-44
2021/04/23 11:20:48;;;;;;;0.28;0.28;;;16.00;52.80;;;;;;4204075;28;20051;-43
2021/04/23 11:23:10;;;;;;;0.00;0.00;;;16.00;52.80;;;;;;4211901;28;20090;-44
2021/04/23 11:25:31;;;;;;;0.00;0.00;;;16.00;53.00;;;;;;4208458;28;20052;-43
2021/04/23 11:28:05;;;;;;;;;;;16.00;52.90;;;;;;4193195;28;20132;-45
2021/04/23 11:30:27;;;;;;;0.00;0.00;;;16.00;52.90;;;;;;4221361;28;19931;-44
2021/04/23 11:32:52;;;;;;;;;;;16.00;52.80;;;;;;4224143;28;20781;-45
2021/04/23 11:35:21;;;;;;;0.00;0.00;;;16.00;52.70;;;;;;4223988;28;20332;-43
2021/04/23 11:37:53;;;;;;;0.00;0.00;;;16.00;53.60;;;;;;4208417;28;20051;-47
2021/04/23 11:40:17;;;;;;;0.00;0.00;;;16.00;52.80;;;;;;4208070;28;20109;-44
2021/04/23 11:42:44;;;;;;;0.52;0.40;;;16.00;52.70;;;;;;4193383;28;20121;-44
2021/04/23 11:45:07;;;;;;;0.13;0.13;;;16.00;52.80;;;;;;4193393;28;20131;-43
2021/04/23 11:47:35;;;;;;;0.22;0.22;;;16.10;52.90;;;;;;4205179;28;20474;-45
2021/04/23 11:50:10;;;;;;;0.00;0.00;;;16.10;52.90;;;;;;4206328;28;20055;-44
2021/04/23 11:52:32;;;;;;;0.00;0.00;;;16.10;52.80;;;;;;4207559;28;20048;-44
2021/04/23 11:54:54;;;;;;;0.10;0.10;;;16.10;52.80;;;;;;4198404;28;20102;-45
2021/04/23 11:57:15;;;;;;;0.00;0.00;;;16.10;52.70;;;;;;4216868;28;20657;-47
2021/04/23 11:59:37;;;;;;;;;;;16.10;52.50;;;;;;4224957;28;20476;-46
2021/04/23 12:01:58;;;;;;;0.00;0.00;;;16.10;52.70;;;;;;4239620;27;20002;-46
2021/04/23 12:04:45;;;;;;;0.00;0.00;;;16.10;52.50;;;;;;4207684;28;20105;-50
2021/04/23 12:07:06;;;;;;;0.20;0.20;;;16.10;52.40;;;;;;4191724;28;20471;-50
2021/04/23 12:09:27;;;;;;;0.77;0.38;;;16.10;52.50;;;;;;4206713;28;20048;-45
2021/04/23 12:12:02;;;;;;;0.38;0.38;;;16.10;52.40;;;;;;4209924;28;20047;-44
2021/04/23 12:14:39;;;;;;;0.25;0.25;;;16.10;52.10;;;;;;4223944;28;20071;-43
2021/04/23 12:17:00;;;;;;;2.85;0.63;;;16.20;52.10;;;;;;4223792;28;20517;-43
2021/04/23 12:19:26;;;;;;;0.73;0.73;;;16.10;52.00;;;;;;4223647;28;20386;-44
2021/04/23 12:21:54;;;;;;;0.00;0.00;;;16.20;52.00;;;;;;4209159;28;20056;-43
2021/04/23 12:24:22;;;;;;;0.10;0.10;;;16.10;51.80;;;;;;4212115;28;20138;-43
2021/04/23 12:26:47;;;;;;;0.00;0.00;;;16.10;51.80;;;;;;4215847;28;20046;-47
2021/04/23 12:29:08;;;;;;;0.17;0.17;;;16.10;51.90;;;;;;4232090;28;20043;-44
2021/04/23 12:31:30;;;;;;;0.00;0.00;;;16.20;51.90;;;;;;4211269;28;20053;-44